Chrysanthemum — C6XO4 — position and weather

sailwx.info

Track history (hours):
 
Tides and Currents Weather Stations Pressure Air Temp Water Temp Dewpoint Dewpoint Depression Visibility Wind Speed Wind Dir Waves Ship Positions

Chrysanthemum

Last reported at 2015-Feb-08 15:32 UTC. Time now 2015-Mar-02 01:04 UTC.
Position N 01°54' E 102°23'.
Warning: this ship's position is 21 days out of date.

Length 244 m; draft 7.8 m.

Type: Tanker. MMSI: 311015300.

Date/timePositionNaut miles runAvg speedWind from/ knotsBaromVisibWave heightAir tempDewpointWater temp
2015-Feb-08 15:32N 01°54' E 102°23'1313.1
2015-Feb-08 14:32N 01°47' E 102°34'7514.3
2015-Feb-08 09:17N 01°13' E 103°41'5 6.3
2015-Feb-08 08:33N 01°17' E 103°44'0 0.0
2015-Feb-08 07:17N 01°17' E 103°44'0 0.0
2015-Feb-08 06:10N 01°17' E 103°44'0 0.0
2015-Feb-08 05:23N 01°17' E 103°44'0 0.0
2015-Feb-07 13:23N 01°17' E 103°44'0 0.0
2015-Feb-07 10:28N 01°17' E 103°44'0 0.0
2015-Feb-07 09:28N 01°17' E 103°44'0 0.0
2015-Feb-07 08:04N 01°17' E 103°44'0 0.0
2015-Feb-07 06:26N 01°17' E 103°44'0 0.0
2015-Feb-06 08:05N 01°17' E 103°44'0 0.0
2015-Feb-06 07:20N 01°17' E 103°44'0 0.0
2015-Feb-06 06:28N 01°17' E 103°44'0 0.0
2015-Feb-06 05:16N 01°17' E 103°44'0 0.0
2015-Feb-06 03:08N 01°17' E 103°44'0 0.0
2015-Feb-06 00:31N 01°17' E 103°44'0 0.0
2015-Feb-05 22:05N 01°17' E 103°44'0 0.0
2015-Feb-05 21:29N 01°17' E 103°44'0 0.0
2015-Feb-05 20:23N 01°17' E 103°44'0 0.0
2015-Feb-05 11:32N 01°17' E 103°44'0 0.0
2015-Feb-05 07:15N 01°17' E 103°44'2 3.0
2015-Feb-05 06:33N 01°15' E 103°46'6 0.8
2015-Feb-04 23:17N 01°11' E 103°42'0 0.0
2015-Feb-04 19:20N 01°11' E 103°42'  
2015-Feb-02 09:17N 01°44' E 102°34'912.6
2015-Feb-02 08:32N 01°48' E 102°26'  
Track history (hours):
 
Tides and Currents Weather Stations Pressure Air Temp Water Temp Dewpoint Dewpoint Depression Visibility Wind Speed Wind Dir Waves Ship Positions

Chrysanthemum

Last reported at 2015-Feb-08 15:32 UTC. Time now 2015-Mar-02 01:04 UTC.
Position N 01°54' E 102°23'.
Warning: this ship's position is 21 days out of date.

Length 244 m; draft 7.8 m.

Type: Tanker. MMSI: 311015300.

Date/timePositionNaut miles runAvg speedWind from/ knotsBaromVisibWave heightAir tempDewpointWater temp
2015-Feb-08 15:32N 01°54' E 102°23'1313.1
2015-Feb-08 14:32N 01°47' E 102°34'7514.3
2015-Feb-08 09:17N 01°13' E 103°41'5 6.3
2015-Feb-08 08:33N 01°17' E 103°44'0 0.0
2015-Feb-08 07:17N 01°17' E 103°44'0 0.0
2015-Feb-08 06:10N 01°17' E 103°44'0 0.0
2015-Feb-08 05:23N 01°17' E 103°44'0 0.0
2015-Feb-07 13:23N 01°17' E 103°44'0 0.0
2015-Feb-07 10:28N 01°17' E 103°44'0 0.0
2015-Feb-07 09:28N 01°17' E 103°44'0 0.0
2015-Feb-07 08:04N 01°17' E 103°44'0 0.0
2015-Feb-07 06:26N 01°17' E 103°44'0 0.0
2015-Feb-06 08:05N 01°17' E 103°44'0 0.0
2015-Feb-06 07:20N 01°17' E 103°44'0 0.0
2015-Feb-06 06:28N 01°17' E 103°44'0 0.0
2015-Feb-06 05:16N 01°17' E 103°44'0 0.0
2015-Feb-06 03:08N 01°17' E 103°44'0 0.0
2015-Feb-06 00:31N 01°17' E 103°44'0 0.0
2015-Feb-05 22:05N 01°17' E 103°44'0 0.0
2015-Feb-05 21:29N 01°17' E 103°44'0 0.0
2015-Feb-05 20:23N 01°17' E 103°44'0 0.0
2015-Feb-05 11:32N 01°17' E 103°44'0 0.0
2015-Feb-05 07:15N 01°17' E 103°44'2 3.0
2015-Feb-05 06:33N 01°15' E 103°46'6 0.8
2015-Feb-04 23:17N 01°11' E 103°42'0 0.0
2015-Feb-04 19:20N 01°11' E 103°42'  
2015-Feb-02 09:17N 01°44' E 102°34'912.6
2015-Feb-02 08:32N 01°48' E 102°26'  

Dump ship's entire track history